This is the latest recevied weather packets stored in our database for station/object BMCB-21. If no packets are shown the sender has not sent any weather packets the latest 10 day(s).
| Time | Temp. | Humidity | Pressure | Rain* | Wind** | Luminosity | Snow |
|---|---|---|---|---|---|---|---|
| 1777980049 | 11.67° C | 95% | 1008.5 hPa | 0 mm | - | 54 W/m² | - |
| 1777978847 | 11.67° C | 95% | 1008.7 hPa | 0 mm | - | 58 W/m² | - |
| 1777977644 | 12.22° C | 96% | 1008.6 hPa | 0 mm | - | 133 W/m² | - |
| 1777975243 | 11.67° C | 97% | 1008.8 hPa | 0 mm | - | 58 W/m² | - |
| 1777973443 | 11.67° C | 97% | 1008.7 hPa | 0 mm | - | 71 W/m² | - |
| 1777972245 | 11.67° C | 98% | 1008.7 hPa | 0 mm | - | 82 W/m² | - |
| 1777968644 | 11.67° C | 97% | 1009 hPa | 0.25 mm | - | 41 W/m² | - |
| 1777962643 | 11.67° C | 99% | 1008.9 hPa | 0 mm | - | 24 W/m² | - |
| 1777955447 | 12.22° C | 98% | 1008.9 hPa | 2.79 mm | - | 0 W/m² | - |
| 1777954846 | 11.67° C | 98% | 1008.9 hPa | 3.56 mm | - | 0 W/m² | - |
| 1777951247 | 11.67° C | 98% | 1009.2 hPa | 4.83 mm | - | 0 W/m² | - |
| 1777949444 | 11.67° C | 98% | 1009.4 hPa | 0.51 mm | - | 0 W/m² | - |
| 1777947047 | 12.22° C | 98% | 1009.5 hPa | 0 mm | - | 0 W/m² | - |
| 1777946447 | 11.67° C | 98% | 1009.4 hPa | 0 mm | - | 0 W/m² | - |
| 1777942848 | 11.67° C | 98% | 1009.7 hPa | 0 mm | - | 0 W/m² | - |
| 1777940447 | 11.67° C | 98% | 1010.2 hPa | 0 mm | - | 0 W/m² | - |
| 1777935050 | 11.67° C | 98% | 1010.7 hPa | 0 mm | - | 0 W/m² | - |
| 1777926624 | 12.78° C | 94% | 1011.5 hPa | 0 mm | - | 0 W/m² | - |
| 1777915222 | 15° C | 86% | 1011 hPa | 0.25 mm | - | 48 W/m² | - |
| 1777914622 | 15° C | 88% | 1010.9 hPa | 0.25 mm | - | 54 W/m² | - |
| 1777911622 | 16.11° C | 87% | 1011.1 hPa | 0 mm | - | 37 W/m² | - |
| 1777903222 | 16.67° C | 83% | 1011.7 hPa | 0 mm | - | 190 W/m² | - |
| 1777894842 | 16.67° C | 81% | 1012.4 hPa | 0 mm | - | 204 W/m² | - |
| 1777891843 | 16.11° C | 82% | 1012.8 hPa | 0 mm | - | 102 W/m² | - |
| 1777888847 | 15.56° C | 85% | 1012.9 hPa | 0 mm | - | 105 W/m² | - |
* Rain latest hour (hover to see other rain measurements)
** Current wind speed in m/s (hover to see current wind gust speed)